Düsseldorf Airport

EDDL · North Rhine-Westphalia, Alemanha

História da METAR EDDL · Düsseldorf Airport

Abaixo você vê METARs dos últimos dias. Selecione um ano para navegar pelos METARs mais antigos, a partir do ano 2007.

24 de maio de 2024

Hora Código Clima Temp. Visibilidade Tecto Vento METAR/SPECI
18:20
V
17 °C 10 km+ 3.700 ft 070° 070° 6 kt METAR EDDL 241620Z AUTO 07006KT 020V090 9999 SCT023 BKN037 17/14 Q1016 NOSIG
17:50
V
17 °C 10 km+ - 040° 040° 8 kt METAR EDDL 241550Z AUTO 04008KT 9999 FEW041 17/15 Q1016 NOSIG
17:20
V
18 °C 10 km+ - 050° 050° 10 kt METAR EDDL 241520Z AUTO 05010KT 020V080 9999 FEW029 18/14 Q1016 NOSIG
16:50
V
18 °C 10 km+ - 030° 030° 9 kt METAR EDDL 241450Z AUTO 03009KT 010V070 9999 FEW013 18/15 Q1016 NOSIG
16:20
V
18 °C 10 km+ - 020° 020° 6 kt METAR EDDL 241420Z AUTO 02006KT 360V060 9999 FEW043 18/15 Q1016 RESHRA NOSIG
15:50
V
17 °C 10 km+ - 020° 020° 9 kt METAR EDDL 241350Z AUTO 02009KT 9999 SHRA FEW035 FEW///CB 17/15 Q1017 BECMG NSW
15:20
V
16 °C 9 km - 360° 360° 5 kt METAR EDDL 241320Z AUTO 36005KT 9000 SHRA SCT019 SCT028 FEW///TCU 16/15 Q1017 TEMPO +SHRA BKN011CB
14:50
M
16 °C 7 km 1.700 ft 340° 340° 4 kt METAR EDDL 241250Z AUTO 34004KT 300V030 7000 SHRA BKN017 BKN035 FEW///TCU 16/15 Q1017 TEMPO +SHRA BKN011CB
14:20
M
16 °C 10 km+ 1.700 ft 340° 340° 4 kt METAR EDDL 241220Z AUTO 34004KT 310V010 9999 SHRA FEW009 BKN017 BKN036 FEW///TCU 16/15 Q1017
13:50
V
16 °C 10 km+ 4.100 ft 360° 360° 5 kt METAR EDDL 241150Z AUTO 36005KT 320V020 9999 -SHRA FEW012 BKN041 FEW///TCU 16/14 Q1017 RESHRA TEMPO SHRA BKN011CB
13:20
V
15 °C 10 km+ 4.700 ft 350° 350° 5 kt METAR EDDL 241120Z AUTO 35005KT 9999 SHRA SCT012 BKN047 FEW///TCU 15/14 Q1017 TEMPO NSW
12:50
V
15 °C 10 km+ - 350° 350° 5 kt METAR EDDL 241050Z AUTO 35005KT 9999 -RA SCT012 SCT040 15/14 Q1018 TEMPO BKN012
12:20
V
15 °C 10 km+ - 340° 340° 3 kt METAR EDDL 241020Z AUTO 34003KT 310V030 9999 -RA SCT046 15/14 Q1018 TEMPO SHRA BKN030CB
11:50
V
15 °C 9 km - 330° 330° 5 kt METAR EDDL 240950Z AUTO 33005KT 9000 -RA FEW003 15/14 Q1018 TEMPO BKN012
11:20
M
15 °C 6 km - Var Var 1 kt METAR EDDL 240920Z AUTO VRB01KT 6000 -RA FEW003 15/14 Q1018 TEMPO 4000 BR BKN005
10:50
M
15 °C 6 km - 290° 290° 3 kt METAR EDDL 240850Z AUTO 29003KT 250V320 6000 -RA FEW005 SCT014 15/14 Q1018 TEMPO BKN010
10:20
M
15 °C 7 km 1.800 ft 200° 200° 4 kt METAR EDDL 240820Z AUTO 20004KT 7000 -RA FEW006 BKN018 15/14 Q1019 TEMPO 4000 RA BKN012
09:50
V
15 °C 8 km - 150° 150° 4 kt METAR EDDL 240750Z AUTO 15004KT 110V190 8000 -RA FEW008 15/14 Q1018 RERA TEMPO 4000 RA BKN010
09:20
V
15 °C 9 km - 130° 130° 5 kt METAR EDDL 240720Z AUTO 13005KT 100V160 9000 -RA FEW009 15/14 Q1018 TEMPO 4000 SHRA BKN020CB
08:50
V
15 °C 10 km+ - 150° 150° 7 kt METAR EDDL 240650Z AUTO 15007KT 9999 -SHRA FEW008 FEW///TCU 15/14 Q1018 RESHRA TEMPO 4000 RA BKN012
08:20
V
15 °C 10 km+ 4.900 ft Var Var 1 kt METAR EDDL 240620Z AUTO VRB01KT 9999 SHRA FEW002 BKN049 FEW///TCU 15/13 Q1018 TEMPO NSW
07:50
V
15 °C 10 km+ - 320° 320° 2 kt METAR EDDL 240550Z AUTO 32002KT CAVOK 15/13 Q1017 TEMPO 4000 SHRA BKN030CB
07:20
V
14 °C 10 km+ - Var Var 2 kt METAR EDDL 240520Z AUTO VRB02KT 9999 -RA NSC 14/13 Q1017 NOSIG
06:50
V
14 °C 10 km+ - Var Var 1 kt METAR EDDL 240450Z AUTO VRB01KT CAVOK 14/13 Q1017 NOSIG
06:20
V
14 °C 10 km+ - 080° 080° 3 kt METAR EDDL 240420Z AUTO 08003KT CAVOK 14/13 Q1017 NOSIG
05:50
V
14 °C 10 km+ - 050° 050° 2 kt METAR EDDL 240350Z AUTO 05002KT CAVOK 14/13 Q1017 NOSIG
05:20
V
13 °C 10 km+ - 080° 080° 3 kt METAR EDDL 240320Z AUTO 08003KT 030V100 CAVOK 13/13 Q1017 NOSIG
04:50
V
14 °C 10 km+ - 060° 060° 3 kt METAR EDDL 240250Z AUTO 06003KT CAVOK 14/13 Q1017 NOSIG
04:20
V
14 °C 10 km+ - 040° 040° 2 kt METAR EDDL 240220Z AUTO 04002KT CAVOK 14/13 Q1017 NOSIG
03:50
V
14 °C 10 km+ - Var Var 2 kt METAR EDDL 240150Z AUTO VRB02KT CAVOK 14/13 Q1017 NOSIG
03:20
V
14 °C 10 km+ - 080° 080° 3 kt METAR EDDL 240120Z AUTO 08003KT 350V110 9999 -SHRA FEW///TCU 14/13 Q1017 NOSIG
02:50
V
15 °C 10 km+ - 110° 110° 3 kt METAR EDDL 240050Z AUTO 11003KT 060V130 9999 -SHRA FEW037 FEW///CB 15/13 Q1017 NOSIG
02:20
V
15 °C 10 km+ - 140° 140° 5 kt METAR EDDL 240020Z AUTO 14005KT 9999 -SHRA FEW///CB 15/12 Q1017 NOSIG
01:50
V
15 °C 10 km+ - Var Var 1 kt METAR EDDL 232350Z AUTO VRB01KT 9999 VCSH FEW///CB 15/13 Q1017 NOSIG
01:20
V
15 °C 10 km+ - 020° 020° 2 kt METAR EDDL 232320Z AUTO 02002KT CAVOK 15/13 Q1017 NOSIG
00:50
V
15 °C 10 km+ - Var Var 2 kt METAR EDDL 232250Z AUTO VRB02KT CAVOK 15/12 Q1017 NOSIG
00:20
V
15 °C 10 km+ - Var Var 1 kt METAR EDDL 232220Z AUTO VRB01KT CAVOK 15/12 Q1017 NOSIG

23 de maio de 2024

Hora Código Clima Temp. Visibilidade Tecto Vento METAR/SPECI
23:50
V
16 °C 10 km+ - 120° 120° 5 kt METAR EDDL 232150Z AUTO 12005KT CAVOK 16/12 Q1017 NOSIG
23:20
V
14 °C 10 km+ - 090° 090° 3 kt METAR EDDL 232120Z AUTO 09003KT 340V140 CAVOK 14/12 Q1017 NOSIG
22:50
V
15 °C 10 km+ - Var Var 2 kt METAR EDDL 232050Z AUTO VRB02KT CAVOK 15/12 Q1017 NOSIG
22:20
V
14 °C 10 km+ - 050° 050° 2 kt METAR EDDL 232020Z AUTO 05002KT CAVOK 14/12 Q1017 NOSIG
21:50
V
15 °C 10 km+ - Var Var 1 kt METAR EDDL 231950Z AUTO VRB01KT CAVOK 15/12 Q1016 NOSIG
21:20
V
16 °C 10 km+ - Var Var 1 kt METAR EDDL 231920Z AUTO VRB01KT CAVOK 16/12 Q1016 NOSIG
20:50
V
19 °C 10 km+ - 270° 270° 3 kt METAR EDDL 231850Z AUTO 27003KT CAVOK 19/11 Q1015 NOSIG
20:20
V
20 °C 10 km+ - 280° 280° 4 kt METAR EDDL 231820Z AUTO 28004KT CAVOK 20/11 Q1015 NOSIG
19:50
V
20 °C 10 km+ - 270° 270° 5 kt METAR EDDL 231750Z AUTO 27005KT 230V290 CAVOK 20/11 Q1015 NOSIG
19:20
V
20 °C 10 km+ - 280° 280° 6 kt METAR EDDL 231720Z AUTO 28006KT 250V310 CAVOK 20/10 Q1015 NOSIG
18:50
V
19 °C 10 km+ - 270° 270° 8 kt METAR EDDL 231650Z AUTO 27008KT CAVOK 19/11 Q1015 NOSIG
18:20
V
20 °C 10 km+ - 260° 260° 5 kt METAR EDDL 231620Z AUTO 26005KT 210V300 CAVOK 20/11 Q1015 NOSIG
17:50
V
22 °C 10 km+ - 270° 270° 5 kt METAR EDDL 231550Z AUTO 27005KT 200V310 9999 FEW043 22/11 Q1015 NOSIG
17:20
V
21 °C 10 km+ - 220° 220° 4 kt METAR EDDL 231520Z AUTO 22004KT 180V290 9999 FEW042 21/12 Q1015 NOSIG
16:50
V
21 °C 10 km+ - 260° 260° 4 kt METAR EDDL 231450Z AUTO 26004KT 190V300 9999 FEW041 21/12 Q1015 NOSIG
16:20
V
20 °C 10 km+ - 260° 260° 4 kt METAR EDDL 231420Z AUTO 26004KT 160V330 9999 FEW041 20/11 Q1015 NOSIG
15:50
V
20 °C 10 km+ - 260° 260° 6 kt METAR EDDL 231350Z AUTO 26006KT 200V300 9999 FEW040 20/11 Q1015 NOSIG
15:20
V
20 °C 10 km+ - 260° 260° 7 kt METAR EDDL 231320Z AUTO 26007KT 150V310 9999 SCT037 20/12 Q1015 NOSIG
14:50
V
21 °C 10 km+ - 280° 280° 6 kt METAR EDDL 231250Z AUTO 28006KT 180V320 9999 FEW038 21/12 Q1015 NOSIG
14:20
V
20 °C 10 km+ - 250° 250° 7 kt METAR EDDL 231220Z AUTO 25007KT 210V290 CAVOK 20/11 Q1015 NOSIG
13:50
V
19 °C 10 km+ - 240° 240° 8 kt METAR EDDL 231150Z AUTO 24008KT 220V290 9999 FEW039 19/11 Q1015 NOSIG
13:20
V
18 °C 10 km+ - 270° 270° 7 kt METAR EDDL 231120Z AUTO 27007KT 230V300 9999 SCT037 SCT045 18/11 Q1015 NOSIG
12:50
V
18 °C 10 km+ - 250° 250° 8 kt METAR EDDL 231050Z AUTO 25008KT 210V300 9999 FEW032 SCT045 18/11 Q1015 NOSIG
12:20
V
18 °C 10 km+ 4.100 ft 260° 260° 10 kt METAR EDDL 231020Z AUTO 26010KT 230V300 9999 SCT031 BKN041 BKN048 18/11 Q1015 NOSIG
11:50
V
18 °C 10 km+ 4.300 ft 240° 240° 10 kt METAR EDDL 230950Z AUTO 24010KT 210V270 9999 FEW029 BKN043 18/11 Q1015 NOSIG
11:20
V
17 °C 10 km+ 4.200 ft 230° 230° 9 kt METAR EDDL 230920Z AUTO 23009KT 9999 FEW028 SCT035 BKN042 17/11 Q1015 NOSIG
10:50
V
17 °C 10 km+ 3.300 ft 250° 250° 8 kt METAR EDDL 230850Z AUTO 25008KT 9999 SCT025 BKN033 BKN041 17/12 Q1015 NOSIG
10:20
M
16 °C 10 km+ 3.000 ft 240° 240° 7 kt METAR EDDL 230820Z AUTO 24007KT 210V280 9999 SCT024 BKN030 16/11 Q1015 NOSIG
09:50
M
17 °C 10 km+ 2.600 ft 230° 230° 8 kt METAR EDDL 230750Z AUTO 23008KT 9999 SCT022 BKN026 17/12 Q1015 NOSIG
09:20
M
16 °C 10 km+ 2.000 ft 230° 230° 9 kt METAR EDDL 230720Z AUTO 23009KT 9999 BKN020 16/11 Q1015 NOSIG
08:50
V
16 °C 10 km+ - 220° 220° 9 kt METAR EDDL 230650Z AUTO 22009KT 190V250 CAVOK 16/11 Q1015 NOSIG
08:20
V
15 °C 10 km+ - 210° 210° 8 kt METAR EDDL 230620Z AUTO 21008KT 180V240 9999 FEW026 15/11 Q1015 NOSIG
07:50
V
15 °C 10 km+ - 190° 190° 7 kt METAR EDDL 230550Z AUTO 19007KT 160V220 9999 SCT026 15/11 Q1014 NOSIG
07:20
V
14 °C 10 km+ - 180° 180° 5 kt METAR EDDL 230520Z AUTO 18005KT CAVOK 14/10 Q1014 BECMG 24009KT
06:50
V
13 °C 10 km+ - 160° 160° 6 kt METAR EDDL 230450Z AUTO 16006KT 130V190 9999 FEW026 13/10 Q1014 BECMG 23009KT
06:20
V
12 °C 10 km+ - 170° 170° 6 kt METAR EDDL 230420Z AUTO 17006KT 9999 SCT028 12/10 Q1014 NOSIG
05:50
V
12 °C 10 km+ - 190° 190° 6 kt METAR EDDL 230350Z AUTO 19006KT 9999 SCT024 12/09 Q1014 NOSIG
05:20
V
12 °C 10 km+ - 180° 180° 6 kt METAR EDDL 230320Z AUTO 18006KT CAVOK 12/09 Q1013 NOSIG
04:50
V
11 °C 10 km+ - 200° 200° 7 kt METAR EDDL 230250Z AUTO 20007KT CAVOK 11/09 Q1013 NOSIG
04:20
V
11 °C 10 km+ - 190° 190° 6 kt METAR EDDL 230220Z AUTO 19006KT CAVOK 11/09 Q1013 NOSIG
03:50
V
12 °C 10 km+ - 190° 190° 5 kt METAR EDDL 230150Z AUTO 19005KT CAVOK 12/09 Q1013 NOSIG
03:20
V
12 °C 10 km+ - 210° 210° 6 kt METAR EDDL 230120Z AUTO 21006KT CAVOK 12/10 Q1013 NOSIG
02:50
V
12 °C 10 km+ - 200° 200° 4 kt METAR EDDL 230050Z AUTO 20004KT CAVOK 12/10 Q1013 NOSIG
02:20
V
12 °C 10 km+ - 220° 220° 5 kt METAR EDDL 230020Z AUTO 22005KT CAVOK 12/10 Q1013 NOSIG
01:50
V
12 °C 10 km+ - 230° 230° 6 kt METAR EDDL 222350Z AUTO 23006KT CAVOK 12/10 Q1013 NOSIG
01:20
V
13 °C 10 km+ - 220° 220° 7 kt METAR EDDL 222320Z AUTO 22007KT CAVOK 13/10 Q1013 NOSIG
00:50
V
13 °C 10 km+ - 220° 220° 8 kt METAR EDDL 222250Z AUTO 22008KT CAVOK 13/11 Q1013 NOSIG
00:20
V
13 °C 10 km+ - 220° 220° 8 kt METAR EDDL 222220Z AUTO 22008KT CAVOK 13/11 Q1013 NOSIG

22 de maio de 2024

Hora Código Clima Temp. Visibilidade Tecto Vento METAR/SPECI
23:50
V
14 °C 10 km+ - 210° 210° 7 kt METAR EDDL 222150Z AUTO 21007KT CAVOK 14/11 Q1013 NOSIG
23:20
V
14 °C 10 km+ - 220° 220° 7 kt METAR EDDL 222120Z AUTO 22007KT CAVOK 14/11 Q1012 NOSIG
22:50
V
15 °C 10 km+ - 230° 230° 6 kt METAR EDDL 222050Z AUTO 23006KT CAVOK 15/11 Q1012 NOSIG
22:20
V
15 °C 10 km+ - Var Var 1 kt METAR EDDL 222020Z AUTO VRB01KT CAVOK 15/12 Q1012 NOSIG
21:50
V
16 °C 10 km+ - 240° 240° 4 kt METAR EDDL 221950Z AUTO 24004KT CAVOK 16/11 Q1012 NOSIG
21:20
V
17 °C 10 km+ - 240° 240° 4 kt METAR EDDL 221920Z AUTO 24004KT CAVOK 17/10 Q1011 NOSIG
20:50
V
18 °C 10 km+ - 260° 260° 6 kt METAR EDDL 221850Z AUTO 26006KT 9999 SCT044 18/10 Q1011 NOSIG
20:20
V
18 °C 10 km+ 4.400 ft 250° 250° 7 kt METAR EDDL 221820Z AUTO 25007KT 220V280 9999 BKN044 18/12 Q1010 NOSIG
19:50
V
18 °C 10 km+ - 200° 200° 6 kt METAR EDDL 221750Z AUTO 20006KT 9999 SCT048 18/12 Q1010
19:20
V
19 °C 10 km+ - 220° 220° 8 kt METAR EDDL 221720Z AUTO 22008KT CAVOK 19/12 Q1010 NOSIG
18:50
V
19 °C 10 km+ - 210° 210° 9 kt METAR EDDL 221650Z AUTO 21009KT 9999 FEW039 19/12 Q1010 NOSIG
18:20
V
20 °C 10 km+ - 220° 220° 10 kt METAR EDDL 221620Z AUTO 22010KT 9999 FEW041 20/12 Q1010 NOSIG
17:50
V
19 °C 10 km+ - 220° 220° 9 kt METAR EDDL 221550Z AUTO 22009KT 190V250 9999 FEW040 19/11 Q1010 NOSIG
17:20
V
19 °C 10 km+ - 230° 230° 8 kt METAR EDDL 221520Z AUTO 23008KT 210V280 9999 FEW034 19/12 Q1010 NOSIG
16:50
V
19 °C 10 km+ - 220° 220° 10 kt METAR EDDL 221450Z AUTO 22010KT 180V250 9999 FEW036 19/12 Q1010 NOSIG
16:20
V
18 °C 10 km+ - 220° 220° 11 kt METAR EDDL 221420Z AUTO 22011KT 9999 FEW032 18/11 Q1010 NOSIG
15:50
V
17 °C 10 km+ 4.400 ft 230° 230° 14 kt METAR EDDL 221350Z AUTO 23014KT 9999 SCT030 BKN044 17/11 Q1011 NOSIG
15:20
V
17 °C 10 km+ 4.200 ft 220° 220° 11 kt METAR EDDL 221320Z AUTO 22011KT 9999 SCT026 SCT034 BKN042 17/12 Q1010 NOSIG
14:50
V
17 °C 10 km+ 4.600 ft 240° 240° 14 kt METAR EDDL 221250Z AUTO 24014KT 9999 SCT029 SCT040 BKN046 17/11 Q1010 NOSIG
14:20
V
18 °C 10 km+ 4.800 ft 230° 230° 14 kt METAR EDDL 221220Z AUTO 23014KT 9999 FEW029 BKN048 18/12 Q1010 NOSIG
13:50
V
18 °C 10 km+ - 230° 230° 15 kt METAR EDDL 221150Z AUTO 23015KT 9999 FEW027 SCT037 18/12 Q1010 NOSIG
13:20
V
19 °C 10 km+ 4.300 ft 230° 230° 14 kt METAR EDDL 221120Z AUTO 23014KT 9999 FEW026 BKN043 19/13 Q1009 NOSIG
12:50
V
18 °C 10 km+ - 240° 240° 17 kt METAR EDDL 221050Z AUTO 24017KT 9999 FEW022 SCT036 18/13 Q1009 NOSIG
12:20
V
17 °C 10 km+ 4.900 ft 220° 220° 12 kt METAR EDDL 221020Z AUTO 22012KT 9999 FEW016 SCT030 BKN049 17/13 Q1009 NOSIG
11:50
V
16 °C 10 km+ 3.600 ft 230° 230° 7 kt METAR EDDL 220950Z AUTO 23007KT 200V260 9999 VCSH SCT015 BKN036 OVC046 FEW///CB 16/13 Q1009 NOSIG
11:20
M
15 °C 10 km+ 2.400 ft 240° 240° 6 kt METAR EDDL 220920Z AUTO 24006KT 9999 -SHRA FEW006 BKN024 OVC030 FEW///CB 15/13 Q1009 RESHRA TEMPO SHRA
10:50
V
16 °C 10 km+ 3.100 ft 230° 230° 7 kt METAR EDDL 220850Z AUTO 23007KT 9999 FEW018 BKN031 OVC037 16/12 Q1008 NOSIG
10:20
M
16 °C 10 km+ 2.400 ft 240° 240° 8 kt METAR EDDL 220820Z AUTO 24008KT 9999 FEW017 BKN024 OVC034 16/13 Q1008 NOSIG
09:50
V
16 °C 10 km+ 3.500 ft 240° 240° 9 kt METAR EDDL 220750Z AUTO 24009KT 220V280 9999 SCT014 SCT025 BKN035 16/13 Q1008 NOSIG
09:20
M
15 °C 10 km+ 2.200 ft 230° 230° 10 kt METAR EDDL 220720Z AUTO 23010KT 9999 SCT014 BKN022 OVC047 15/13 Q1008 NOSIG
08:50
M
15 °C 10 km+ 1.200 ft 220° 220° 9 kt METAR EDDL 220650Z AUTO 22009KT 9999 BKN012 BKN016 BKN038 15/13 Q1007 BECMG BKN015
08:20
M
15 °C 10 km+ 1.200 ft 220° 220° 9 kt METAR EDDL 220620Z AUTO 22009KT 9999 BKN012 BKN016 OVC039 15/13 Q1007 BECMG BKN015
07:50
M
15 °C 10 km+ 1.100 ft 220° 220° 11 kt METAR EDDL 220550Z AUTO 22011KT 9999 BKN011 BKN029 OVC038 15/13 Q1007 BECMG BKN015
Relatar uma mudança